NORTHEAST SUFFOLK  -  Winter Weather Advisory Winter Weather Advisory     Winter Weather Advisory Winter Weather Advisory        NORTHERN NASSAU  -  Winter Weather Advisory Winter Weather Advisory        NORTHWEST SUFFOLK  -  Winter Weather Advisory Winter Weather Advisory     Winter Weather Advisory Winter Weather Advisory        SOUTHEAST SUFFOLK  -  Winter Weather Advisory Winter Weather Advisory     Winter Weather Advisory Winter Weather Advisory        SOUTHERN NASSAU  -  Winter Weather Advisory Winter Weather Advisory        SOUTHWEST SUFFOLK  -  Winter Weather Advisory Winter Weather Advisory     Winter Weather Advisory Winter Weather Advisory      

Active alerts

Northern Nassau
  Details for Northern Nassau Winter Weather Advisory
Southern Nassau
  Details for Southern Nassau Winter Weather Advisory
Northwest Suffolk
  Details for Northwest Suffolk Winter Weather Advisory  +1 additional alert
Southwest Suffolk
  Details for Southwest Suffolk Winter Weather Advisory  +1 additional alert
Northeast Suffolk
  Details for Northeast Suffolk Winter Weather Advisory  +1 additional alert
Southeast Suffolk
  Details for Southeast Suffolk Winter Weather Advisory  +1 additional alert


WXM80 ListenWXM80 Stop

You find our weather info also at:

UK Metoffice

WeatherCloud

Weather Underground

Northeastern Weather Network

AWEKAS

Citizen Weather Observer Program (CWOP)

HAMweather, WeatherForYou, PWS Weather


Weather Underground History page Text

Daily Summary for January 12, 2017 Units:  English    Metric   Both
« Previous Day
Next Day »
Daily Weekly Monthly Yearly Custom
  High: Low: Average:
Temperature: 64.0 °F 46.9 °F 54.5 °F
Dew Point: 55.9 °F 45.8 °F 50.8 °F
Humidity: 97 % 73 % 88 %
Wind Speed: 10.7 mph 0.3 mph 4.6 mph
Wind Gust: 23.0 mph - -
Wind:- - SSW
Pressure: 30.16 in 29.93 in -
Precipitation: 0.00 in    
Historical Graphs
 
 
Tabular Data for January 12, 2017
Time Temperature Dew Point Pressure Wind Wind Speed Wind Gust Humidity Rainfall Rate (Hourly)
00:00 46.9 °F 45.8 °F 30.16 in SSW 3.6 mph 4.6 mph 96 % 0.04 in
00:05 47.0 °F 45.9 °F 30.15 in SSW 3.6 mph 4.6 mph 96 % 0.05 in
00:10 47.1 °F 46.0 °F 30.15 in SSE 4.9 mph 10.4 mph 96 % 0.04 in
00:15 47.3 °F 46.2 °F 30.15 in South 7.4 mph 8.0 mph 96 % 0.04 in
00:20 47.5 °F 46.4 °F 30.15 in SSW 5.2 mph 10.0 mph 96 % 0.04 in
00:25 47.6 °F 46.5 °F 30.14 in SW 4.8 mph 6.9 mph 96 % 0.04 in
00:30 47.7 °F 46.6 °F 30.14 in SSW 6.4 mph 10.4 mph 96 % 0.04 in
00:35 47.7 °F 46.6 °F 30.14 in South 4.8 mph 9.2 mph 96 % 0.05 in
00:40 47.7 °F 46.6 °F 30.14 in South 3.8 mph 9.2 mph 96 % 0.04 in
00:45 47.8 °F 46.7 °F 30.14 in WSW 6.3 mph 11.5 mph 96 % 0.04 in
00:50 47.8 °F 46.7 °F 30.14 in SSW 5.8 mph 9.0 mph 96 % 0.04 in
00:55 47.8 °F 46.7 °F 30.14 in SSW 4.2 mph 8.1 mph 96 % 0.04 in
01:00 47.8 °F 46.7 °F 30.13 in SW 3.1 mph 7.0 mph 96 % 0.04 in
01:06 47.9 °F 46.8 °F 30.13 in SSW 7.7 mph 12.0 mph 96 % 0.03 in
01:11 48.0 °F 46.9 °F 30.13 in WSW 6.5 mph 9.0 mph 96 % 0.03 in
01:16 48.1 °F 47.3 °F 30.13 in SSW 4.9 mph 13.8 mph 97 % 0.04 in
01:21 48.2 °F 47.4 °F 30.12 in SSW 5.3 mph 12.0 mph 97 % 0.03 in
01:26 48.3 °F 47.5 °F 30.12 in South 8.0 mph 12.7 mph 97 % 0.03 in
01:31 48.5 °F 47.4 °F 30.12 in SSW 4.5 mph 10.0 mph 96 % 0.03 in
01:36 48.5 °F 47.4 °F 30.12 in SSW 6.9 mph 12.7 mph 96 % 0.02 in
01:41 48.6 °F 47.5 °F 30.12 in SSW 6.2 mph 15.0 mph 96 % 0.02 in
01:46 48.7 °F 47.6 °F 30.12 in SW 3.3 mph 11.5 mph 96 % 0.03 in
01:51 48.7 °F 47.6 °F 30.12 in SW 2.1 mph 7.0 mph 96 % 0.03 in
01:56 48.7 °F 47.6 °F 30.12 in SW 3.1 mph 10.0 mph 96 % 0.02 in
02:01 48.7 °F 47.6 °F 30.12 in SW 6.7 mph 10.4 mph 96 % 0.02 in
02:06 48.7 °F 47.6 °F 30.12 in SSW 5.9 mph 11.0 mph 96 % 0.02 in
02:12 48.7 °F 47.6 °F 30.12 in SSW 4.2 mph 6.9 mph 96 % 0.02 in
02:17 48.6 °F 47.5 °F 30.12 in SSW 5.1 mph 10.4 mph 96 % 0.02 in
02:22 48.6 °F 47.5 °F 30.11 in SSW 4.1 mph 8.0 mph 96 % 0.02 in
02:27 48.6 °F 47.5 °F 30.11 in SSW 4.7 mph 11.5 mph 96 % 0.02 in
02:32 48.6 °F 47.5 °F 30.12 in SSW 3.9 mph 10.4 mph 96 % 0.02 in
02:37 48.6 °F 47.5 °F 30.11 in SSW 4.9 mph 7.0 mph 96 % 0.02 in
02:42 48.6 °F 47.5 °F 30.11 in SSW 3.0 mph 9.2 mph 96 % 0.02 in
02:47 48.6 °F 47.5 °F 30.11 in SW 8.8 mph 11.5 mph 96 % 0.01 in
02:52 48.6 °F 47.5 °F 30.12 in SW 4.2 mph 11.0 mph 96 % 0.01 in
02:57 48.6 °F 47.5 °F 30.11 in SSW 6.6 mph 11.5 mph 96 % 0.01 in
03:02 48.6 °F 47.5 °F 30.11 in South 3.1 mph 9.2 mph 96 % 0.02 in
03:07 48.6 °F 47.5 °F 30.11 in SSW 5.4 mph 10.4 mph 96 % 0.02 in
03:12 48.6 °F 47.5 °F 30.12 in SSW 5.6 mph 8.1 mph 96 % 0.02 in
03:17 48.6 °F 47.5 °F 30.12 in South 3.8 mph 5.8 mph 96 % 0.01 in
03:22 48.6 °F 47.5 °F 30.12 in South 5.8 mph 9.2 mph 96 % 0.01 in
03:27 48.6 °F 47.5 °F 30.12 in SSW 4.5 mph 8.1 mph 96 % 0.01 in
03:32 48.6 °F 47.5 °F 30.11 in SSW 5.6 mph 16.1 mph 96 % 0.01 in
03:38 48.7 °F 47.6 °F 30.11 in SSW 3.9 mph 6.0 mph 96 % 0.01 in
03:43 48.8 °F 47.7 °F 30.10 in SW 1.4 mph 5.8 mph 96 % 0.01 in
03:48 48.9 °F 47.8 °F 30.11 in SSW 6.7 mph 11.0 mph 96 % 0.01 in
03:53 49.0 °F 48.2 °F 30.10 in SSW 3.1 mph 6.9 mph 97 % 0.02 in
03:58 49.1 °F 48.0 °F 30.10 in South 4.1 mph 6.9 mph 96 % 0.02 in
04:03 49.1 °F 48.0 °F 30.09 in South 5.7 mph 10.4 mph 96 % 0.01 in
04:08 49.2 °F 48.1 °F 30.09 in South 4.1 mph 8.1 mph 96 % 0.01 in
04:13 49.2 °F 48.1 °F 30.09 in SW 4.6 mph 10.4 mph 96 % 0.01 in
04:18 49.3 °F 48.2 °F 30.09 in South 4.3 mph 6.9 mph 96 % 0.01 in
04:23 49.3 °F 48.2 °F 30.09 in SSE 4.4 mph 9.2 mph 96 % 0.01 in
04:28 49.2 °F 48.1 °F 30.08 in SW 5.1 mph 7.0 mph 96 % 0.01 in
04:33 49.2 °F 48.1 °F 30.08 in SSW 2.5 mph 5.0 mph 96 % 0.01 in
04:38 49.1 °F 48.0 °F 30.09 in SSW 3.3 mph 5.8 mph 96 % 0.01 in
04:43 48.9 °F 47.8 °F 30.08 in SSW 1.2 mph 3.5 mph 96 % 0.01 in
04:49 48.8 °F 47.7 °F 30.07 in SSW 3.5 mph 5.8 mph 96 % 0.00 in
04:54 48.8 °F 47.7 °F 30.06 in South 3.0 mph 8.1 mph 96 % 0.00 in
04:59 48.8 °F 47.7 °F 30.07 in South 3.9 mph 5.8 mph 96 % 0.01 in
05:04 48.7 °F 47.6 °F 30.06 in SSW 6.1 mph 11.5 mph 96 % 0.01 in
05:09 48.7 °F 47.6 °F 30.07 in SSW 4.2 mph 6.9 mph 96 % 0.01 in
05:14 48.7 °F 47.6 °F 30.07 in SW 5.4 mph 9.2 mph 96 % 0.01 in
05:19 48.7 °F 47.6 °F 30.07 in SSW 5.6 mph 9.2 mph 96 % 0.01 in
05:24 48.6 °F 47.5 °F 30.07 in SSW 8.0 mph 13.0 mph 96 % 0.00 in
05:29 48.6 °F 47.5 °F 30.07 in SSW 6.0 mph 9.0 mph 96 % 0.00 in
05:34 48.6 °F 47.5 °F 30.07 in South 6.0 mph 10.0 mph 96 % 0.00 in
05:39 48.5 °F 47.4 °F 30.06 in SSW 5.0 mph 12.0 mph 96 % 0.00 in
05:44 48.5 °F 47.4 °F 30.06 in SW 6.8 mph 10.0 mph 96 % 0.01 in
05:49 48.5 °F 47.4 °F 30.06 in South 2.8 mph 7.0 mph 96 % 0.01 in
05:54 48.4 °F 47.3 °F 30.05 in South 6.0 mph 9.0 mph 96 % 0.00 in
05:59 48.4 °F 47.3 °F 30.05 in South 4.3 mph 5.0 mph 96 % 0.00 in
06:04 48.4 °F 47.3 °F 30.05 in South 6.0 mph 12.0 mph 96 % 0.00 in
06:09 48.4 °F 47.3 °F 30.05 in SSW 2.0 mph 10.0 mph 96 % 0.00 in
06:14 48.4 °F 47.3 °F 30.06 in SSW 5.0 mph 10.0 mph 96 % 0.00 in
06:19 48.5 °F 47.4 °F 30.06 in SW 3.8 mph 5.0 mph 96 % 0.01 in
06:24 48.5 °F 47.4 °F 30.06 in SSW 5.0 mph 9.0 mph 96 % 0.00 in
06:29 48.5 °F 47.4 °F 30.06 in South 4.6 mph 9.2 mph 96 % 0.01 in
06:34 48.5 °F 47.4 °F 30.06 in South 6.4 mph 8.0 mph 96 % 0.01 in
06:39 48.5 °F 47.4 °F 30.06 in South 2.6 mph 8.1 mph 96 % 0.01 in
06:44 48.5 °F 47.4 °F 30.06 in SSW 5.0 mph 8.0 mph 96 % 0.00 in
06:49 48.5 °F 47.4 °F 30.06 in SW 5.0 mph 10.0 mph 96 % 0.00 in
06:54 48.6 °F 47.5 °F 30.06 in South 4.4 mph 6.9 mph 96 % 0.01 in
06:59 48.6 °F 47.5 °F 30.05 in SSW 4.5 mph 6.0 mph 96 % 0.01 in
07:04 48.7 °F 47.6 °F 30.06 in South 5.3 mph 11.5 mph 96 % 0.01 in
07:09 48.7 °F 47.6 °F 30.06 in SSW 2.0 mph 10.0 mph 96 % 0.00 in
07:14 48.8 °F 47.7 °F 30.06 in SSW 3.0 mph 9.0 mph 96 % 0.00 in
07:19 48.8 °F 47.7 °F 30.06 in SSW 6.0 mph 9.0 mph 96 % 0.00 in
07:24 48.8 °F 47.7 °F 30.06 in SSW 2.0 mph 7.0 mph 96 % 0.00 in
07:29 48.9 °F 47.8 °F 30.06 in South 3.5 mph 6.9 mph 96 % 0.00 in
07:34 48.9 °F 47.8 °F 30.06 in SW 5.0 mph 10.0 mph 96 % 0.00 in
07:39 49.0 °F 47.9 °F 30.06 in SW 1.0 mph 6.0 mph 96 % 0.00 in
07:44 49.0 °F 47.9 °F 30.06 in SSW 2.0 mph 7.0 mph 96 % 0.00 in
07:49 49.1 °F 48.0 °F 30.06 in SW 2.5 mph 5.8 mph 96 % 0.00 in
07:54 49.1 °F 48.0 °F 30.06 in SSW 5.0 mph 7.0 mph 96 % 0.00 in
07:59 49.2 °F 48.1 °F 30.06 in SSW 5.1 mph 11.5 mph 96 % 0.00 in
08:04 49.3 °F 48.2 °F 30.06 in SSW 5.0 mph 11.5 mph 96 % 0.00 in
08:09 49.4 °F 48.3 °F 30.05 in South 4.8 mph 9.2 mph 96 % 0.00 in
08:14 49.4 °F 48.3 °F 30.05 in SW 1.2 mph 3.5 mph 96 % 0.00 in
08:19 49.4 °F 48.3 °F 30.06 in SW 1.9 mph 5.0 mph 96 % 0.01 in
08:24 49.5 °F 48.4 °F 30.06 in South 2.2 mph 7.0 mph 96 % 0.01 in
08:29 49.7 °F 48.6 °F 30.06 in SSW 4.0 mph 7.0 mph 96 % 0.01 in
08:34 49.8 °F 48.7 °F 30.06 in South 2.8 mph 4.6 mph 96 % 0.01 in
08:39 49.9 °F 48.8 °F 30.06 in SSW 2.0 mph 5.0 mph 96 % 0.01 in
08:44 50.0 °F 48.9 °F 30.06 in South 4.5 mph 10.4 mph 96 % 0.01 in
08:50 50.1 °F 49.0 °F 30.06 in SW 4.5 mph 6.0 mph 96 % 0.01 in
08:55 50.3 °F 49.2 °F 30.06 in SSW 2.5 mph 6.9 mph 96 % 0.01 in
09:00 50.4 °F 49.3 °F 30.06 in SSW 2.6 mph 4.6 mph 96 % 0.01 in
09:05 50.5 °F 49.4 °F 30.06 in West 0.4 mph 5.8 mph 96 % 0.01 in
09:10 50.7 °F 49.6 °F 30.06 in SSW 1.9 mph 4.6 mph 96 % 0.01 in
09:15 50.9 °F 49.8 °F 30.06 in SW 4.7 mph 8.1 mph 96 % 0.01 in
09:20 51.1 °F 50.0 °F 30.06 in SSW 3.4 mph 8.1 mph 96 % 0.00 in
09:25 51.2 °F 50.1 °F 30.06 in SSW 4.4 mph 8.1 mph 96 % 0.00 in
09:30 51.4 °F 50.3 °F 30.06 in SW 3.4 mph 4.0 mph 96 % 0.00 in
09:35 51.7 °F 50.6 °F 30.06 in SW 3.0 mph 5.0 mph 96 % 0.00 in
09:40 51.9 °F 50.8 °F 30.06 in WSW 2.3 mph 6.9 mph 96 % 0.00 in
09:45 52.1 °F 51.0 °F 30.05 in SW 2.6 mph 7.0 mph 96 % 0.00 in
09:50 52.3 °F 51.2 °F 30.05 in SSW 5.0 mph 9.2 mph 96 % 0.00 in
09:55 52.6 °F 51.2 °F 30.05 in WSW 4.9 mph 9.0 mph 95 % 0.00 in
10:00 52.8 °F 51.4 °F 30.05 in SSW 3.4 mph 8.1 mph 95 % 0.00 in
10:05 53.0 °F 51.6 °F 30.05 in SW 4.8 mph 9.2 mph 95 % 0.00 in
10:10 53.1 °F 51.7 °F 30.05 in SSW 4.8 mph 6.9 mph 95 % 0.00 in
10:15 53.3 °F 51.6 °F 30.04 in SW 5.4 mph 9.2 mph 94 % 0.00 in
10:20 53.4 °F 51.7 °F 30.04 in South 4.0 mph 11.5 mph 94 % 0.00 in
10:25 53.6 °F 51.9 °F 30.04 in SW 1.7 mph 3.5 mph 94 % 0.00 in
10:30 53.8 °F 51.8 °F 30.04 in WSW 4.1 mph 8.1 mph 93 % 0.00 in
10:35 54.1 °F 52.1 °F 30.03 in South 4.5 mph 9.0 mph 93 % 0.00 in
10:40 54.2 °F 51.9 °F 30.03 in WSW 5.2 mph 9.2 mph 92 % 0.00 in
10:41 54.3 °F 52.0 °F 30.03 in SSW 6.2 mph 11.0 mph 92 % 0.00 in
10:46 54.6 °F 52.3 °F 30.02 in WSW 3.1 mph 7.0 mph 92 % 0.00 in
10:51 54.9 °F 52.6 °F 30.03 in SW 6.9 mph 10.4 mph 92 % 0.00 in
10:56 55.3 °F 52.7 °F 30.02 in WSW 5.2 mph 6.9 mph 91 % 0.00 in
11:01 55.7 °F 53.1 °F 30.02 in SW 5.0 mph 5.0 mph 91 % 0.00 in
11:06 56.2 °F 53.3 °F 30.02 in WSW 3.7 mph 5.8 mph 90 % 0.00 in
11:11 56.6 °F 53.7 °F 30.02 in SSW 6.5 mph 11.5 mph 90 % 0.00 in
11:16 57.0 °F 53.8 °F 30.01 in SW 3.7 mph 6.9 mph 89 % 0.00 in
11:21 57.5 °F 54.0 °F 30.01 in WSW 5.9 mph 8.0 mph 88 % 0.00 in
11:26 57.8 °F 54.0 °F 30.01 in SSW 8.6 mph 12.7 mph 87 % 0.00 in
11:31 58.0 °F 53.8 °F 30.01 in West 8.3 mph 14.0 mph 86 % 0.00 in
11:36 58.1 °F 53.9 °F 30.01 in SW 0.9 mph 2.0 mph 86 % 0.00 in
11:41 58.2 °F 54.0 °F 30.01 in WSW 9.1 mph 12.7 mph 86 % 0.01 in
11:46 58.4 °F 53.9 °F 30.01 in SSW 4.3 mph 8.1 mph 85 % 0.01 in
11:52 58.6 °F 54.1 °F 30.00 in South 6.2 mph 12.7 mph 85 % 0.01 in
11:57 59.0 °F 54.5 °F 30.00 in SW 5.0 mph 11.5 mph 85 % 0.01 in
12:02 59.6 °F 55.1 °F 29.99 in SW 7.0 mph 15.0 mph 85 % 0.01 in
12:07 60.0 °F 55.2 °F 29.99 in SSW 6.6 mph 23.0 mph 84 % 0.01 in
12:12 60.3 °F 55.1 °F 29.99 in SW 9.5 mph 11.5 mph 83 % 0.01 in
12:17 60.5 °F 55.0 °F 29.98 in SW 10.7 mph 16.0 mph 82 % 0.01 in
12:22 60.6 °F 55.1 °F 29.98 in West 5.3 mph 14.0 mph 82 % 0.01 in
12:27 60.6 °F 54.7 °F 29.98 in WSW 6.5 mph 10.4 mph 81 % 0.01 in
12:32 60.7 °F 54.8 °F 29.98 in SSW 6.1 mph 16.1 mph 81 % 0.01 in
12:37 60.9 °F 55.0 °F 29.97 in SSW 5.6 mph 11.5 mph 81 % 0.01 in
12:42 61.1 °F 55.2 °F 29.96 in SW 7.5 mph 10.4 mph 81 % 0.00 in
12:47 61.2 °F 55.0 °F 29.95 in WSW 5.2 mph 10.4 mph 80 % 0.00 in
12:52 61.3 °F 55.1 °F 29.95 in SW 1.9 mph 3.5 mph 80 % 0.00 in
12:57 61.3 °F 55.4 °F 29.95 in SW 1.6 mph 8.0 mph 81 % 0.00 in
13:02 61.6 °F 55.7 °F 29.97 in SSW 3.9 mph 6.9 mph 81 % 0.00 in
13:07 62.1 °F 55.9 °F 29.96 in SW 2.7 mph 8.0 mph 80 % 0.00 in
13:12 62.6 °F 55.6 °F 29.96 in South 8.3 mph 11.5 mph 78 % 0.00 in
13:17 62.9 °F 55.6 °F 29.95 in SSW 3.6 mph 6.9 mph 77 % 0.00 in
13:23 62.9 °F 55.2 °F 29.95 in SSW 6.7 mph 11.5 mph 76 % 0.00 in
13:28 62.8 °F 55.5 °F 29.95 in SW 3.6 mph 9.0 mph 77 % 0.00 in
13:33 62.9 °F 55.2 °F 29.94 in SW 4.3 mph 9.0 mph 76 % 0.00 in
13:38 63.1 °F 55.4 °F 29.94 in SSW 7.1 mph 9.0 mph 76 % 0.00 in
13:43 63.3 °F 55.6 °F 29.95 in SW 3.5 mph 8.1 mph 76 % 0.00 in
13:48 63.5 °F 55.4 °F 29.95 in SW 8.5 mph 12.0 mph 75 % 0.00 in
13:53 63.7 °F 55.6 °F 29.94 in SSW 4.8 mph 9.2 mph 75 % 0.00 in
13:58 63.9 °F 55.8 °F 29.95 in NW 0.6 mph 8.1 mph 75 % 0.00 in
14:03 64.0 °F 55.9 °F 29.95 in WSW 7.3 mph 10.4 mph 75 % 0.00 in
14:08 64.0 °F 55.9 °F 29.95 in South 4.3 mph 5.8 mph 75 % 0.00 in
14:13 64.0 °F 55.5 °F 29.95 in SW 2.6 mph 6.9 mph 74 % 0.00 in
14:18 64.0 °F 55.9 °F 29.95 in WSW 3.0 mph 4.0 mph 75 % 0.00 in
14:23 64.0 °F 55.5 °F 29.95 in WSW 5.8 mph 10.4 mph 74 % 0.00 in
14:28 63.9 °F 55.1 °F 29.95 in SSW 8.6 mph 12.7 mph 73 % 0.00 in
14:34 63.7 °F 55.3 °F 29.94 in SSE 3.5 mph 6.0 mph 74 % 0.00 in
14:39 63.6 °F 55.2 °F 29.94 in South 1.8 mph 3.5 mph 74 % 0.00 in
14:44 63.4 °F 55.0 °F 29.93 in SSW 3.8 mph 8.1 mph 74 % 0.00 in
14:49 63.1 °F 54.7 °F 29.93 in South 0.3 mph 3.5 mph 74 % 0.00 in
14:54 62.9 °F 54.5 °F 29.94 in SSW 2.1 mph 3.5 mph 74 % 0.00 in
14:59 62.7 °F 54.3 °F 29.94 in SW 5.8 mph 10.4 mph 74 % 0.00 in
15:04 62.5 °F 54.1 °F 29.93 in SSW 6.0 mph 12.0 mph 74 % 0.00 in
15:09 62.2 °F 53.8 °F 29.94 in SSW 5.0 mph 9.0 mph 74 % 0.00 in
15:14 61.9 °F 53.9 °F 29.94 in SSW 3.0 mph 12.0 mph 75 % 0.00 in
15:19 61.7 °F 53.7 °F 29.93 in SSW 5.6 mph 7.0 mph 75 % 0.00 in
15:24 61.7 °F 53.7 °F 29.94 in SSW 1.0 mph 8.0 mph 75 % 0.00 in
15:29 61.6 °F 53.6 °F 29.95 in SSW 2.0 mph 7.0 mph 75 % 0.00 in
15:34 61.5 °F 53.5 °F 29.96 in SSW 5.0 mph 8.0 mph 75 % 0.00 in
15:39 61.4 °F 53.4 °F 29.96 in SW 6.0 mph 12.0 mph 75 % 0.00 in
15:44 61.2 °F 53.2 °F 29.94 in South 3.8 mph 6.9 mph 75 % 0.00 in
15:49 61.1 °F 53.5 °F 29.93 in South 2.0 mph 6.0 mph 76 % 0.00 in
15:54 60.9 °F 53.3 °F 29.93 in South 6.0 mph 12.0 mph 76 % 0.00 in
15:59 60.5 °F 52.9 °F 29.93 in SSW 3.1 mph 6.0 mph 76 % 0.00 in
16:04 60.2 °F 52.6 °F 29.94 in SSW 3.0 mph 10.0 mph 76 % 0.00 in
16:09 59.9 °F 52.3 °F 29.94 in SSW 6.0 mph 12.0 mph 76 % 0.00 in
16:14 59.5 °F 52.2 °F 29.95 in SSW 3.0 mph 10.0 mph 77 % 0.00 in
16:19 59.0 °F 51.8 °F 29.95 in South 8.6 mph 11.0 mph 77 % 0.00 in
16:24 58.7 °F 51.8 °F 29.96 in SW 3.0 mph 12.0 mph 78 % 0.00 in
16:29 58.4 °F 51.5 °F 29.96 in SSW 3.0 mph 12.0 mph 78 % 0.00 in
16:34 58.0 °F 51.1 °F 29.96 in SSW 2.0 mph 7.0 mph 78 % 0.00 in
16:39 57.6 °F 51.1 °F 29.96 in SSW 2.0 mph 8.0 mph 79 % 0.00 in
16:44 57.3 °F 50.9 °F 29.95 in SSW 2.0 mph 6.0 mph 79 % 0.00 in
16:54 56.7 °F 50.6 °F 29.95 in SSW 5.0 mph 8.0 mph 80 % 0.00 in
16:59 56.3 °F 50.5 °F 29.94 in South 3.1 mph 5.8 mph 81 % 0.00 in
17:04 56.0 °F 50.3 °F 29.95 in South 3.0 mph 12.0 mph 81 % 0.00 in
17:09 55.8 °F 50.4 °F 29.95 in SSW 6.0 mph 8.0 mph 82 % 0.00 in
17:14 55.6 °F 50.2 °F 29.95 in SSW 3.0 mph 13.0 mph 82 % 0.00 in
17:19 55.4 °F 50.0 °F 29.95 in SSW 3.0 mph 7.0 mph 82 % 0.00 in
17:24 55.3 °F 50.2 °F 29.95 in SSW 6.0 mph 10.0 mph 83 % 0.00 in
17:29 55.2 °F 50.1 °F 29.95 in South 5.8 mph 9.2 mph 83 % 0.00 in
17:34 55.2 °F 50.1 °F 29.95 in SSW 6.0 mph 12.0 mph 83 % 0.00 in
17:39 55.1 °F 50.4 °F 29.94 in SSW 6.0 mph 13.0 mph 84 % 0.00 in
17:44 55.2 °F 50.4 °F 29.94 in SSW 7.0 mph 12.0 mph 84 % 0.00 in
17:49 55.3 °F 50.5 °F 29.95 in South 5.5 mph 10.4 mph 84 % 0.00 in
17:54 55.5 °F 50.4 °F 29.95 in SSW 6.0 mph 10.0 mph 83 % 0.00 in
17:59 55.5 °F 50.4 °F 29.95 in SW 6.2 mph 13.8 mph 83 % 0.00 in
18:04 55.5 °F 50.4 °F 29.95 in SSW 6.3 mph 11.5 mph 83 % 0.00 in
18:09 55.5 °F 50.4 °F 29.95 in SSW 4.1 mph 8.1 mph 83 % 0.00 in
18:14 55.5 °F 50.4 °F 29.96 in SSW 3.7 mph 7.0 mph 83 % 0.00 in
18:19 55.5 °F 50.4 °F 29.95 in SW 6.1 mph 11.5 mph 83 % 0.00 in
18:24 55.6 °F 50.8 °F 29.96 in SSW 6.4 mph 12.7 mph 84 % 0.00 in
18:29 55.7 °F 50.6 °F 29.96 in SSW 7.2 mph 11.5 mph 83 % 0.00 in
18:34 55.9 °F 50.8 °F 29.96 in SSW 5.2 mph 13.8 mph 83 % 0.00 in
18:39 56.0 °F 50.9 °F 29.96 in South 4.4 mph 9.2 mph 83 % 0.00 in
18:44 56.1 °F 51.0 °F 29.97 in SSW 7.0 mph 15.0 mph 83 % 0.00 in
18:49 56.2 °F 51.1 °F 29.97 in SSW 6.2 mph 8.1 mph 83 % 0.00 in
18:54 56.3 °F 51.2 °F 29.98 in South 4.6 mph 8.1 mph 83 % 0.00 in
19:00 56.4 °F 51.3 °F 29.98 in South 5.9 mph 11.5 mph 83 % 0.00 in
19:05 56.5 °F 51.4 °F 29.98 in SW 4.6 mph 6.9 mph 83 % 0.00 in
19:10 56.5 °F 51.4 °F 29.98 in SW 5.7 mph 7.0 mph 83 % 0.00 in
19:15 56.6 °F 51.5 °F 29.99 in SW 4.9 mph 9.0 mph 83 % 0.00 in
19:20 56.6 °F 51.5 °F 29.99 in SSW 5.3 mph 5.8 mph 83 % 0.00 in
19:25 56.8 °F 51.7 °F 29.99 in South 4.9 mph 11.5 mph 83 % 0.00 in
19:30 56.9 °F 51.8 °F 29.99 in SSW 3.6 mph 5.8 mph 83 % 0.00 in
19:35 56.9 °F 51.8 °F 29.99 in SSW 5.3 mph 6.9 mph 83 % 0.00 in
19:40 57.0 °F 51.9 °F 29.99 in SSE 4.5 mph 8.1 mph 83 % 0.00 in
19:45 57.0 °F 51.9 °F 29.98 in WSW 6.5 mph 15.0 mph 83 % 0.00 in
19:50 57.1 °F 52.0 °F 29.98 in SW 4.6 mph 8.0 mph 83 % 0.00 in
19:55 57.1 °F 52.0 °F 29.99 in SSW 7.1 mph 10.4 mph 83 % 0.00 in
20:01 57.2 °F 52.1 °F 30.00 in SSW 6.8 mph 11.0 mph 83 % 0.00 in
20:06 57.2 °F 52.1 °F 30.00 in SSW 5.4 mph 8.1 mph 83 % 0.00 in
20:11 57.2 °F 52.1 °F 30.01 in SSW 4.6 mph 9.2 mph 83 % 0.00 in
20:16 57.2 °F 52.1 °F 30.00 in South 4.8 mph 9.2 mph 83 % 0.00 in
20:21 57.2 °F 52.1 °F 30.01 in SW 4.4 mph 11.5 mph 83 % 0.00 in
20:26 57.2 °F 52.1 °F 30.01 in SSW 5.6 mph 8.1 mph 83 % 0.00 in
20:31 57.3 °F 52.2 °F 30.01 in SSW 4.7 mph 10.4 mph 83 % 0.00 in
20:36 57.3 °F 52.2 °F 30.01 in WSW 2.9 mph 5.8 mph 83 % 0.00 in
20:41 57.4 °F 52.3 °F 30.01 in SSW 1.0 mph 5.8 mph 83 % 0.00 in
20:46 57.5 °F 52.4 °F 30.01 in SSW 6.9 mph 10.4 mph 83 % 0.00 in
20:51 57.7 °F 52.2 °F 30.01 in SSW 4.3 mph 9.2 mph 82 % 0.00 in
20:56 57.7 °F 52.2 °F 30.01 in SSW 3.2 mph 6.9 mph 82 % 0.00 in
21:01 57.8 °F 52.3 °F 30.01 in SW 3.5 mph 4.6 mph 82 % 0.00 in
21:06 57.8 °F 52.3 °F 30.01 in SSW 5.0 mph 6.9 mph 82 % 0.00 in
21:11 57.9 °F 52.4 °F 30.00 in SSW 5.2 mph 7.0 mph 82 % 0.00 in
21:17 58.0 °F 52.5 °F 30.00 in SSW 4.3 mph 9.0 mph 82 % 0.00 in
21:22 58.1 °F 52.6 °F 30.01 in SSW 4.0 mph 7.0 mph 82 % 0.00 in
21:27 58.1 °F 52.6 °F 30.01 in SSW 5.0 mph 5.8 mph 82 % 0.00 in
21:32 58.2 °F 52.7 °F 30.00 in SSW 2.8 mph 6.9 mph 82 % 0.00 in
21:37 58.2 °F 52.7 °F 30.01 in SW 1.9 mph 5.0 mph 82 % 0.00 in
21:42 58.2 °F 52.7 °F 30.02 in SSW 4.1 mph 6.0 mph 82 % 0.00 in
21:47 58.3 °F 52.8 °F 30.02 in SW 2.8 mph 3.5 mph 82 % 0.00 in
21:52 58.3 °F 52.5 °F 30.01 in WSW 2.8 mph 5.0 mph 81 % 0.00 in
21:57 58.2 °F 52.4 °F 30.01 in WSW 1.3 mph 3.5 mph 81 % 0.00 in
22:02 58.2 °F 52.4 °F 30.01 in SSW 2.7 mph 3.5 mph 81 % 0.00 in
22:07 58.1 °F 52.3 °F 30.02 in WSW 1.4 mph 3.5 mph 81 % 0.00 in
22:12 58.1 °F 52.3 °F 30.02 in WSW 2.3 mph 4.0 mph 81 % 0.00 in
22:18 58.0 °F 52.2 °F 30.03 in WSW 4.9 mph 5.8 mph 81 % 0.00 in
22:23 58.0 °F 52.5 °F 30.02 in WSW 2.0 mph 3.5 mph 82 % 0.00 in
22:28 58.0 °F 52.5 °F 30.03 in SW 3.2 mph 4.0 mph 82 % 0.00 in
22:33 58.0 °F 52.5 °F 30.03 in WSW 4.6 mph 6.9 mph 82 % 0.00 in
22:38 58.1 °F 52.6 °F 30.02 in SW 0.9 mph 2.3 mph 82 % 0.00 in
22:43 58.1 °F 52.6 °F 30.01 in SW 4.9 mph 9.2 mph 82 % 0.00 in
22:48 58.2 °F 52.4 °F 30.00 in SSW 4.2 mph 11.0 mph 81 % 0.00 in
22:53 58.3 °F 52.5 °F 30.00 in SSW 4.0 mph 5.8 mph 81 % 0.00 in
22:58 58.5 °F 52.7 °F 30.00 in South 3.2 mph 10.4 mph 81 % 0.00 in
23:03 58.7 °F 52.9 °F 30.00 in SSW 5.3 mph 9.2 mph 81 % 0.00 in
23:08 58.9 °F 52.7 °F 30.01 in SW 5.3 mph 9.2 mph 80 % 0.00 in
23:13 59.1 °F 52.9 °F 30.01 in SW 7.3 mph 10.4 mph 80 % 0.00 in
23:18 59.3 °F 52.8 °F 30.01 in SSW 6.6 mph 12.0 mph 79 % 0.00 in
23:23 59.5 °F 53.0 °F 30.00 in SW 5.8 mph 9.2 mph 79 % 0.00 in
23:28 59.7 °F 53.2 °F 30.01 in South 4.4 mph 11.0 mph 79 % 0.00 in
23:33 59.8 °F 52.9 °F 30.01 in South 6.8 mph 13.8 mph 78 % 0.00 in
23:38 60.0 °F 53.1 °F 30.02 in WSW 6.8 mph 9.2 mph 78 % 0.00 in
23:43 60.0 °F 53.1 °F 30.01 in WSW 3.4 mph 8.1 mph 78 % 0.00 in
23:49 60.1 °F 53.2 °F 30.01 in SW 5.0 mph 11.5 mph 78 % 0.00 in
23:54 60.2 °F 53.3 °F 30.01 in SW 2.4 mph 4.6 mph 78 % 0.00 in
23:59 60.2 °F 53.0 °F 30.02 in WSW 7.4 mph 11.0 mph 77 % 0.00 in
Crab Meadow Weather
Compliments of Weather Underground - 3 mb

Script developed by  Jim McMurry - jmcmurry@mwt.net Adapted for the template by  Wim van der Kuil - Leuven-Template.eu

Recycling: Americans use 2,500,000 plastic bottles every hour! Most of them are thrown away!